Terminal Aerodrome Forecast
Issued by NWS

Home | Current Version | Previous Version | Text Only | Print | Product List | Glossary On
Versions: 1 2 3 4 5 6 7 8 9 10 11 12 13 14 15 16 17 18 19 20 21 22 23 24 25 26 27 28 29 30
000
FTAK31 PANC 300539
TAFASD
TAF
PASD 300539Z 3006/3106 05006KT P6SM SCT020 BKN025
      TEMPO 3006/3010 SCT025 BKN120
     FM301000 07006KT P6SM -SHRA OVC020
     FM302100 08009G19KT P6SM -RA OVC025
      AMD LTD TO CLD VIS AND WIND=

USA.gov is the U.S. government's official web portal to all federal, state and local government web resources and services.